sensor_id;sensor_type;location;lat;lon;timestamp;pressure;altitude;pressure_sealevel;temperature;humidity
55656;BME280;41530;52.382;5.270;2023-06-04T00:01:31;102524.84;;;22.21;36.77
55656;BME280;41530;52.382;5.270;2023-06-04T00:03:57;102524.97;;;22.20;36.88
55656;BME280;41530;52.382;5.270;2023-06-04T00:06:24;102509.88;;;22.09;36.94
55656;BME280;41530;52.382;5.270;2023-06-04T00:08:51;102522.00;;;22.13;36.68
55656;BME280;41530;52.382;5.270;2023-06-04T00:11:17;102526.50;;;22.13;36.92
55656;BME280;41530;52.382;5.270;2023-06-04T00:13:44;102525.66;;;22.12;36.85
55656;BME280;41530;52.382;5.270;2023-06-04T00:16:11;102522.00;;;22.13;36.92
55656;BME280;41530;52.382;5.270;2023-06-04T00:18:37;102517.94;;;22.09;36.77
55656;BME280;41530;52.382;5.270;2023-06-04T00:21:04;102519.75;;;22.09;36.79
55656;BME280;41530;52.382;5.270;2023-06-04T00:23:31;102514.41;;;22.09;36.84
55656;BME280;41530;52.382;5.270;2023-06-04T00:25:58;102518.78;;;22.10;37.19
55656;BME280;41530;52.382;5.270;2023-06-04T00:28:24;102516.94;;;22.10;36.90
55656;BME280;41530;52.382;5.270;2023-06-04T00:30:51;102514.53;;;22.07;36.95
55656;BME280;41530;52.382;5.270;2023-06-04T00:33:18;102505.34;;;22.00;36.84
55656;BME280;41530;52.382;5.270;2023-06-04T00:35:45;102518.34;;;22.04;36.67
55656;BME280;41530;52.382;5.270;2023-06-04T00:38:11;102518.34;;;22.04;37.02
55656;BME280;41530;52.382;5.270;2023-06-04T00:40:38;102519.59;;;22.00;36.78
55656;BME280;41530;52.382;5.270;2023-06-04T00:43:04;102519.59;;;22.00;36.99
55656;BME280;41530;52.382;5.270;2023-06-04T00:45:32;102517.06;;;21.99;36.83
55656;BME280;41530;52.382;5.270;2023-06-04T00:47:58;102516.19;;;21.98;36.98
55656;BME280;41530;52.382;5.270;2023-06-04T00:50:25;102521.72;;;21.97;37.00
55656;BME280;41530;52.382;5.270;2023-06-04T00:52:52;102517.31;;;21.96;36.69
55656;BME280;41530;52.382;5.270;2023-06-04T00:55:20;102526.34;;;21.95;37.04
55656;BME280;41530;52.382;5.270;2023-06-04T00:57:46;102521.97;;;21.94;36.66
55656;BME280;41530;52.382;5.270;2023-06-04T01:00:13;102521.13;;;21.93;36.70
55656;BME280;41530;52.382;5.270;2023-06-04T01:02:41;102521.25;;;21.92;36.64
55656;BME280;41530;52.382;5.270;2023-06-04T01:05:23;102529.44;;;21.90;36.44
55656;BME280;41530;52.382;5.270;2023-06-04T01:07:57;102519.72;;;21.89;37.00
55656;BME280;41530;52.382;5.270;2023-06-04T01:10:23;102524.34;;;21.87;36.83
55656;BME280;41530;52.382;5.270;2023-06-04T01:12:50;102527.16;;;21.86;36.83
55656;BME280;41530;52.382;5.270;2023-06-04T01:15:17;102527.31;;;21.84;36.70
55656;BME280;41530;52.382;5.270;2023-06-04T01:17:47;102524.63;;;21.84;36.94
55656;BME280;41530;52.382;5.270;2023-06-04T01:25:34;102530.44;;;21.80;36.68
55656;BME280;41530;52.382;5.270;2023-06-04T01:28:02;102529.00;;;21.76;36.66
55656;BME280;41530;52.382;5.270;2023-06-04T01:30:34;102527.16;;;21.76;36.78
55656;BME280;41530;52.382;5.270;2023-06-04T01:33:01;102533.66;;;21.74;36.82
55656;BME280;41530;52.382;5.270;2023-06-04T01:35:29;102531.69;;;21.76;36.76
55656;BME280;41530;52.382;5.270;2023-06-04T01:37:57;102527.44;;;21.73;36.97
55656;BME280;41530;52.382;5.270;2023-06-04T01:40:24;102524.75;;;21.73;37.10
55656;BME280;41530;52.382;5.270;2023-06-04T01:42:52;102520.38;;;21.72;36.85
55656;BME280;41530;52.382;5.270;2023-06-04T01:45:21;102512.34;;;21.72;37.07
55656;BME280;41530;52.382;5.270;2023-06-04T01:47:48;102518.00;;;21.69;37.28
55656;BME280;41530;52.382;5.270;2023-06-04T01:50:15;102522.50;;;21.68;36.82
55656;BME280;41530;52.382;5.270;2023-06-04T01:52:41;102513.78;;;21.66;37.04
55656;BME280;41530;52.382;5.270;2023-06-04T01:55:10;102528.72;;;21.69;37.33
55656;BME280;41530;52.382;5.270;2023-06-04T01:57:42;102527.16;;;21.66;37.40
55656;BME280;41530;52.382;5.270;2023-06-04T02:00:11;102526.31;;;21.66;36.98
55656;BME280;41530;52.382;5.270;2023-06-04T02:02:39;102529.13;;;21.64;37.02
55656;BME280;41530;52.382;5.270;2023-06-04T02:05:08;102532.78;;;21.63;37.03
55656;BME280;41530;52.382;5.270;2023-06-04T02:07:36;102533.63;;;21.64;37.29
55656;BME280;41530;52.382;5.270;2023-06-04T02:10:12;102535.47;;;21.63;36.84
55656;BME280;41530;52.382;5.270;2023-06-04T02:12:41;102515.72;;;21.55;37.02
55656;BME280;41530;52.382;5.270;2023-06-04T02:15:10;102527.69;;;21.60;37.09
55656;BME280;41530;52.382;5.270;2023-06-04T02:17:37;102524.88;;;21.62;37.08
55656;BME280;41530;52.382;5.270;2023-06-04T02:20:09;102521.50;;;21.60;37.38
55656;BME280;41530;52.382;5.270;2023-06-04T02:22:36;102526.84;;;21.60;37.18
55656;BME280;41530;52.382;5.270;2023-06-04T02:25:04;102526.84;;;21.60;37.27
55656;BME280;41530;52.382;5.270;2023-06-04T02:27:31;102530.66;;;21.57;37.46
55656;BME280;41530;52.382;5.270;2023-06-04T02:29:58;102527.16;;;21.57;37.14
55656;BME280;41530;52.382;5.270;2023-06-04T02:32:24;102523.63;;;21.56;37.09
55656;BME280;41530;52.382;5.270;2023-06-04T02:34:51;102532.50;;;21.57;37.30
55656;BME280;41530;52.382;5.270;2023-06-04T02:37:18;102525.47;;;21.56;37.36
55656;BME280;41530;52.382;5.270;2023-06-04T02:39:45;102524.75;;;21.54;37.22
55656;BME280;41530;52.382;5.270;2023-06-04T02:42:11;102524.03;;;21.52;37.12
55656;BME280;41530;52.382;5.270;2023-06-04T02:44:38;102527.56;;;21.52;37.26
55656;BME280;41530;52.382;5.270;2023-06-04T02:47:05;102519.66;;;21.51;37.35
55656;BME280;41530;52.382;5.270;2023-06-04T02:49:32;102525.13;;;21.49;37.52
55656;BME280;41530;52.382;5.270;2023-06-04T02:51:58;102529.66;;;21.49;37.25
55656;BME280;41530;52.382;5.270;2023-06-04T02:54:25;102526.13;;;21.48;37.15
55656;BME280;41530;52.382;5.270;2023-06-04T02:56:52;102520.91;;;21.47;37.44
55656;BME280;41530;52.382;5.270;2023-06-04T02:59:19;102515.69;;;21.45;37.51
55656;BME280;41530;52.382;5.270;2023-06-04T03:01:46;102520.19;;;21.45;37.51
55656;BME280;41530;52.382;5.270;2023-06-04T03:04:13;102511.31;;;21.44;37.60
55656;BME280;41530;52.382;5.270;2023-06-04T03:06:42;102515.84;;;21.44;37.27
55656;BME280;41530;52.382;5.270;2023-06-04T03:09:13;102512.44;;;21.42;37.33
55656;BME280;41530;52.382;5.270;2023-06-04T03:11:39;102517.81;;;21.42;37.48
55656;BME280;41530;52.382;5.270;2023-06-04T03:14:06;102518.78;;;21.41;37.10
55656;BME280;41530;52.382;5.270;2023-06-04T03:16:33;102512.97;;;21.36;37.52
55656;BME280;41530;52.382;5.270;2023-06-04T03:18:59;102520.88;;;21.37;37.42
55656;BME280;41530;52.382;5.270;2023-06-04T03:21:26;102520.88;;;21.37;37.62
55656;BME280;41530;52.382;5.270;2023-06-04T03:23:55;102521.72;;;21.38;37.56
55656;BME280;41530;52.382;5.270;2023-06-04T03:26:22;102515.53;;;21.37;37.37
55656;BME280;41530;52.382;5.270;2023-06-04T03:28:49;102513.13;;;21.34;37.41
55656;BME280;41530;52.382;5.270;2023-06-04T03:31:16;102508.75;;;21.33;37.65
55656;BME280;41530;52.382;5.270;2023-06-04T03:33:42;102512.28;;;21.33;37.49
55656;BME280;41530;52.382;5.270;2023-06-04T03:36:09;102514.22;;;21.31;37.34
55656;BME280;41530;52.382;5.270;2023-06-04T03:38:36;102504.25;;;21.33;37.51
55656;BME280;41530;52.382;5.270;2023-06-04T03:41:02;102506.19;;;21.31;37.63
55656;BME280;41530;52.382;5.270;2023-06-04T03:43:29;102509.88;;;21.30;37.50
55656;BME280;41530;52.382;5.270;2023-06-04T03:45:56;102511.72;;;21.30;37.76
55656;BME280;41530;52.382;5.270;2023-06-04T03:48:23;102510.16;;;21.27;37.51
55656;BME280;41530;52.382;5.270;2023-06-04T03:50:49;102522.56;;;21.28;37.48
55656;BME280;41530;52.382;5.270;2023-06-04T03:53:17;102516.63;;;21.25;37.76
55656;BME280;41530;52.382;5.270;2023-06-04T03:55:43;102518.31;;;21.26;37.79
55656;BME280;41530;52.382;5.270;2023-06-04T03:58:10;102521.00;;;21.26;37.75
55656;BME280;41530;52.382;5.270;2023-06-04T04:00:37;102517.47;;;21.25;37.77
55656;BME280;41530;52.382;5.270;2023-06-04T04:03:04;102509.44;;;21.25;37.64
55656;BME280;41530;52.382;5.270;2023-06-04T04:05:31;102515.63;;;21.26;37.88
55656;BME280;41530;52.382;5.270;2023-06-04T04:07:58;102512.25;;;21.24;37.85
55656;BME280;41530;52.382;5.270;2023-06-04T04:10:24;102516.63;;;21.25;37.91
55656;BME280;41530;52.382;5.270;2023-06-04T04:12:52;102522.97;;;21.24;37.75
55656;BME280;41530;52.382;5.270;2023-06-04T04:15:20;102522.09;;;21.23;37.99
55656;BME280;41530;52.382;5.270;2023-06-04T04:17:47;102514.94;;;21.24;37.75
55656;BME280;41530;52.382;5.270;2023-06-04T04:20:14;102515.91;;;21.23;37.84
55656;BME280;41530;52.382;5.270;2023-06-04T04:22:43;102513.59;;;21.18;37.99
55656;BME280;41530;52.382;5.270;2023-06-04T04:25:10;102517.16;;;21.19;38.04
55656;BME280;41530;52.382;5.270;2023-06-04T04:27:37;102516.03;;;21.21;37.79
55656;BME280;41530;52.382;5.270;2023-06-04T04:30:07;102520.53;;;21.21;38.30
55656;BME280;41530;52.382;5.270;2023-06-04T04:32:34;102518.00;;;21.19;37.88
55656;BME280;41530;52.382;5.270;2023-06-04T04:35:05;102518.00;;;21.19;38.23
55656;BME280;41530;52.382;5.270;2023-06-04T04:37:34;102515.72;;;21.15;37.87
55656;BME280;41530;52.382;5.270;2023-06-04T04:40:06;102523.44;;;21.18;37.97
55656;BME280;41530;52.382;5.270;2023-06-04T04:42:36;102523.34;;;21.19;38.20
55656;BME280;41530;52.382;5.270;2023-06-04T04:45:03;102525.19;;;21.19;38.05
55656;BME280;41530;52.382;5.270;2023-06-04T04:47:31;102525.28;;;21.17;38.13
55656;BME280;41530;52.382;5.270;2023-06-04T04:49:58;102527.84;;;21.19;38.25
55656;BME280;41530;52.382;5.270;2023-06-04T04:52:25;102524.06;;;21.21;38.08
55656;BME280;41530;52.382;5.270;2023-06-04T04:54:52;102522.50;;;21.19;38.19
55656;BME280;41530;52.382;5.270;2023-06-04T04:57:23;102525.03;;;21.20;38.41
55656;BME280;41530;52.382;5.270;2023-06-04T04:59:50;102516.03;;;21.21;38.31
55656;BME280;41530;52.382;5.270;2023-06-04T05:02:17;102523.09;;;21.22;38.10
55656;BME280;41530;52.382;5.270;2023-06-04T05:04:44;102525.03;;;21.20;38.36
55656;BME280;41530;52.382;5.270;2023-06-04T05:07:11;102513.38;;;21.21;38.35
55656;BME280;41530;52.382;5.270;2023-06-04T05:09:40;102524.91;;;21.22;38.19
55656;BME280;41530;52.382;5.270;2023-06-04T05:12:07;102524.66;;;21.25;38.07
55656;BME280;41530;52.382;5.270;2023-06-04T05:14:35;102528.03;;;21.27;38.26
55656;BME280;41530;52.382;5.270;2023-06-04T05:17:03;102532.56;;;21.26;38.49
55656;BME280;41530;52.382;5.270;2023-06-04T05:19:30;102531.56;;;21.27;38.30
55656;BME280;41530;52.382;5.270;2023-06-04T05:21:59;102527.91;;;21.28;38.25
55656;BME280;41530;52.382;5.270;2023-06-04T05:24:30;102529.63;;;21.29;38.23
55656;BME280;41530;52.382;5.270;2023-06-04T05:26:58;102525.25;;;21.28;38.29
55656;BME280;41530;52.382;5.270;2023-06-04T05:29:25;102521.56;;;21.29;38.41
55656;BME280;41530;52.382;5.270;2023-06-04T05:31:53;102518.59;;;21.32;38.43
55656;BME280;41530;52.382;5.270;2023-06-04T05:34:20;102514.94;;;21.33;38.56
55656;BME280;41530;52.382;5.270;2023-06-04T05:36:48;102522.97;;;21.33;38.64
55656;BME280;41530;52.382;5.270;2023-06-04T05:39:15;102519.59;;;21.31;38.41
55656;BME280;41530;52.382;5.270;2023-06-04T05:41:42;102522.97;;;21.33;38.68
55656;BME280;41530;52.382;5.270;2023-06-04T05:44:10;102517.50;;;21.35;38.72
55656;BME280;41530;52.382;5.270;2023-06-04T05:46:37;102505.34;;;21.31;38.55
55656;BME280;41530;52.382;5.270;2023-06-04T05:49:04;102518.91;;;21.39;38.81
55656;BME280;41530;52.382;5.270;2023-06-04T05:51:31;102511.16;;;21.36;38.90
55656;BME280;41530;52.382;5.270;2023-06-04T05:53:58;102518.06;;;21.39;38.84
55656;BME280;41530;52.382;5.270;2023-06-04T05:56:25;102521.59;;;21.39;38.86
55656;BME280;41530;52.382;5.270;2023-06-04T05:58:53;102536.69;;;21.40;38.60
55656;BME280;41530;52.382;5.270;2023-06-04T06:01:20;102537.09;;;21.45;38.66
55656;BME280;41530;52.382;5.270;2023-06-04T06:03:48;102539.78;;;21.45;39.16
55656;BME280;41530;52.382;5.270;2023-06-04T06:06:15;102537.94;;;21.46;38.99
55656;BME280;41530;52.382;5.270;2023-06-04T06:08:42;102540.63;;;21.46;38.83
55656;BME280;41530;52.382;5.270;2023-06-04T06:11:10;102544.88;;;21.48;38.99
55656;BME280;41530;52.382;5.270;2023-06-04T06:13:37;102544.59;;;21.51;38.86
55656;BME280;41530;52.382;5.270;2023-06-04T06:16:05;102550.81;;;21.52;38.94
55656;BME280;41530;52.382;5.270;2023-06-04T06:18:32;102552.50;;;21.53;38.81
55656;BME280;41530;52.382;5.270;2023-06-04T06:20:59;102538.41;;;21.51;38.91
55656;BME280;41530;52.382;5.270;2023-06-04T06:23:26;102542.50;;;21.55;38.99
55656;BME280;41530;52.382;5.270;2023-06-04T06:25:54;102548.56;;;21.57;38.91
55656;BME280;41530;52.382;5.270;2023-06-04T06:28:21;102554.63;;;21.59;38.67
55656;BME280;41530;52.382;5.270;2023-06-04T06:30:48;102546.56;;;21.59;39.16
55656;BME280;41530;52.382;5.270;2023-06-04T06:33:15;102543.91;;;21.59;38.97
55656;BME280;41530;52.382;5.270;2023-06-04T06:35:42;102545.19;;;21.64;38.90
55656;BME280;41530;52.382;5.270;2023-06-04T06:38:13;102558.31;;;21.67;39.22
55656;BME280;41530;52.382;5.270;2023-06-04T06:40:43;102553.50;;;21.71;39.13
55656;BME280;41530;52.382;5.270;2023-06-04T06:43:11;102551.41;;;21.75;39.02
55656;BME280;41530;52.382;5.270;2023-06-04T06:45:38;102551.16;;;21.78;38.88
55656;BME280;41530;52.382;5.270;2023-06-04T06:48:05;102547.47;;;21.79;38.58
55656;BME280;41530;52.382;5.270;2023-06-04T06:50:32;102556.09;;;21.82;39.03
55656;BME280;41530;52.382;5.270;2023-06-04T06:53:02;102553.97;;;21.86;38.56
55656;BME280;41530;52.382;5.270;2023-06-04T06:55:30;102550.44;;;21.85;38.78
55656;BME280;41530;52.382;5.270;2023-06-04T06:57:58;102552.72;;;21.90;38.93
55656;BME280;41530;52.382;5.270;2023-06-04T07:00:26;102561.47;;;21.92;38.66
55656;BME280;41530;52.382;5.270;2023-06-04T07:02:54;102563.03;;;21.94;38.86
55656;BME280;41530;52.382;5.270;2023-06-04T07:05:22;102563.88;;;21.95;38.97
55656;BME280;41530;52.382;5.270;2023-06-04T07:07:49;102562.72;;;21.97;38.73
55656;BME280;41530;52.382;5.270;2023-06-04T07:10:16;102567.84;;;22.00;38.74
55656;BME280;41530;52.382;5.270;2023-06-04T07:12:43;102566.00;;;22.01;39.10
55656;BME280;41530;52.382;5.270;2023-06-04T07:15:10;102563.06;;;22.04;38.79
55656;BME280;41530;52.382;5.270;2023-06-04T07:17:38;102569.41;;;22.03;38.84
55656;BME280;41530;52.382;5.270;2023-06-04T07:20:05;102565.47;;;22.07;38.81
55656;BME280;41530;52.382;5.270;2023-06-04T07:22:34;102561.94;;;22.07;38.89
55656;BME280;41530;52.382;5.270;2023-06-04T07:25:01;102571.38;;;22.11;39.06
55656;BME280;41530;52.382;5.270;2023-06-04T07:27:28;102564.03;;;22.13;39.08
55656;BME280;41530;52.382;5.270;2023-06-04T07:29:56;102556.72;;;22.15;39.21
55656;BME280;41530;52.382;5.270;2023-06-04T07:32:23;102554.75;;;22.17;39.25
55656;BME280;41530;52.382;5.270;2023-06-04T07:34:50;102559.13;;;22.18;39.12
55656;BME280;41530;52.382;5.270;2023-06-04T07:37:17;102557.00;;;22.21;39.36
55656;BME280;41530;52.382;5.270;2023-06-04T07:39:44;102564.91;;;22.23;39.22
55656;BME280;41530;52.382;5.270;2023-06-04T07:42:13;102562.91;;;22.25;39.19
55656;BME280;41530;52.382;5.270;2023-06-04T07:44:40;102569.97;;;22.26;38.98
55656;BME280;41530;52.382;5.270;2023-06-04T07:47:07;102571.53;;;22.28;39.45
55656;BME280;41530;52.382;5.270;2023-06-04T07:49:34;102569.56;;;22.30;39.08
55656;BME280;41530;52.382;5.270;2023-06-04T07:52:09;102559.81;;;22.29;39.00
55656;BME280;41530;52.382;5.270;2023-06-04T07:54:37;102553.31;;;22.32;39.23
55656;BME280;41530;52.382;5.270;2023-06-04T07:57:04;102564.75;;;22.34;39.10
55656;BME280;41530;52.382;5.270;2023-06-04T07:59:32;102567.31;;;22.35;39.35
55656;BME280;41530;52.382;5.270;2023-06-04T08:01:59;102568.16;;;22.36;39.32
55656;BME280;41530;52.382;5.270;2023-06-04T08:04:26;102563.78;;;22.35;39.19
55656;BME280;41530;52.382;5.270;2023-06-04T08:06:53;102563.63;;;22.36;39.27
55656;BME280;41530;52.382;5.270;2023-06-04T08:09:21;102567.00;;;22.38;38.92
55656;BME280;41530;52.382;5.270;2023-06-04T08:11:49;102568.56;;;22.41;39.03
55656;BME280;41530;52.382;5.270;2023-06-04T08:14:16;102571.38;;;22.39;39.03
55656;BME280;41530;52.382;5.270;2023-06-04T08:16:42;102571.09;;;22.43;39.04
55656;BME280;41530;52.382;5.270;2023-06-04T08:19:09;102566.59;;;22.43;39.12
55656;BME280;41530;52.382;5.270;2023-06-04T08:21:36;102564.03;;;22.42;39.03
55656;BME280;41530;52.382;5.270;2023-06-04T08:24:03;102551.34;;;22.34;39.16
55656;BME280;41530;52.382;5.270;2023-06-04T08:26:30;102568.97;;;22.46;39.11
55656;BME280;41530;52.382;5.270;2023-06-04T08:28:57;102573.09;;;22.50;39.59
55656;BME280;41530;52.382;5.270;2023-06-04T08:31:24;102570.41;;;22.50;39.13
55656;BME280;41530;52.382;5.270;2023-06-04T08:33:50;102566.16;;;22.48;39.44
55656;BME280;41530;52.382;5.270;2023-06-04T08:36:17;102575.31;;;22.55;39.34
55656;BME280;41530;52.382;5.270;2023-06-04T08:38:44;102569.81;;;22.56;39.48
55656;BME280;41530;52.382;5.270;2023-06-04T08:41:30;102577.59;;;22.59;39.24
55656;BME280;41530;52.382;5.270;2023-06-04T08:44:00;102577.44;;;22.61;39.49
55656;BME280;41530;52.382;5.270;2023-06-04T08:46:31;102578.16;;;22.63;39.44
55656;BME280;41530;52.382;5.270;2023-06-04T08:49:02;102569.41;;;22.61;39.47
55656;BME280;41530;52.382;5.270;2023-06-04T08:51:32;102567.41;;;22.63;39.56
55656;BME280;41530;52.382;5.270;2023-06-04T08:54:00;102570.63;;;22.66;39.33
55656;BME280;41530;52.382;5.270;2023-06-04T08:56:26;102579.25;;;22.70;39.26
55656;BME280;41530;52.382;5.270;2023-06-04T08:59:00;102576.44;;;22.71;39.47
55656;BME280;41530;52.382;5.270;2023-06-04T09:01:28;102567.69;;;22.69;39.36
55656;BME280;41530;52.382;5.270;2023-06-04T09:03:55;102566.97;;;22.67;39.18
55656;BME280;41530;52.382;5.270;2023-06-04T09:06:25;102570.94;;;22.73;39.41
55656;BME280;41530;52.382;5.270;2023-06-04T09:08:54;102579.81;;;22.73;39.71
55656;BME280;41530;52.382;5.270;2023-06-04T09:11:26;102579.69;;;22.75;39.30
55656;BME280;41530;52.382;5.270;2023-06-04T09:13:59;102577.84;;;22.75;39.34
55656;BME280;41530;52.382;5.270;2023-06-04T09:16:27;102587.31;;;22.80;39.57
55656;BME280;41530;52.382;5.270;2023-06-04T09:19:00;102575.16;;;22.75;39.75
55656;BME280;41530;52.382;5.270;2023-06-04T09:21:27;102580.97;;;22.81;39.60
55656;BME280;41530;52.382;5.270;2023-06-04T09:23:53;102576.56;;;22.80;39.47
55656;BME280;41530;52.382;5.270;2023-06-04T09:26:20;102583.34;;;22.84;40.23
55656;BME280;41530;52.382;5.270;2023-06-04T09:28:47;102582.22;;;22.86;39.87
55656;BME280;41530;52.382;5.270;2023-06-04T09:31:15;102577.72;;;22.87;40.08
55656;BME280;41530;52.382;5.270;2023-06-04T09:36:10;102583.47;;;22.92;40.03
55656;BME280;41530;52.382;5.270;2023-06-04T09:38:37;102585.03;;;22.94;40.60
55656;BME280;41530;52.382;5.270;2023-06-04T09:41:10;102583.31;;;22.93;40.26
55656;BME280;41530;52.382;5.270;2023-06-04T09:43:37;102581.50;;;22.94;40.00
55656;BME280;41530;52.382;5.270;2023-06-04T09:46:10;102589.25;;;22.97;39.69
55656;BME280;41530;52.382;5.270;2023-06-04T09:48:38;102584.88;;;22.96;39.85
55656;BME280;41530;52.382;5.270;2023-06-04T09:51:08;102591.94;;;22.97;40.21
55656;BME280;41530;52.382;5.270;2023-06-04T09:53:35;102588.25;;;22.98;40.23
55656;BME280;41530;52.382;5.270;2023-06-04T09:56:02;102583.59;;;23.00;40.42
55656;BME280;41530;52.382;5.270;2023-06-04T09:58:38;102590.34;;;23.04;40.46
55656;BME280;41530;52.382;5.270;2023-06-04T10:01:06;102589.34;;;23.05;41.01
55656;BME280;41530;52.382;5.270;2023-06-04T10:03:36;102577.63;;;23.06;40.13
55656;BME280;41530;52.382;5.270;2023-06-04T10:06:05;102581.16;;;23.06;40.19
55656;BME280;41530;52.382;5.270;2023-06-04T10:08:33;102589.06;;;23.08;40.61
55656;BME280;41530;52.382;5.270;2023-06-04T10:11:03;102593.47;;;23.09;40.66
55656;BME280;41530;52.382;5.270;2023-06-04T10:13:47;102594.31;;;23.09;40.00
55656;BME280;41530;52.382;5.270;2023-06-04T10:16:14;102591.75;;;23.08;40.17
55656;BME280;41530;52.382;5.270;2023-06-04T10:18:59;102586.00;;;23.03;39.89
55656;BME280;41530;52.382;5.270;2023-06-04T10:21:26;102594.19;;;23.01;40.08
55656;BME280;41530;52.382;5.270;2023-06-04T10:23:52;102597.88;;;23.00;39.86
55656;BME280;41530;52.382;5.270;2023-06-04T10:26:19;102593.22;;;23.02;40.25
55656;BME280;41530;52.382;5.270;2023-06-04T10:28:46;102593.34;;;23.01;40.02
55656;BME280;41530;52.382;5.270;2023-06-04T10:31:12;102592.88;;;23.05;40.57
55656;BME280;41530;52.382;5.270;2023-06-04T10:33:39;102589.34;;;23.05;40.28
55656;BME280;41530;52.382;5.270;2023-06-04T10:36:20;102588.22;;;23.07;39.93
55656;BME280;41530;52.382;5.270;2023-06-04T10:38:51;102586.53;;;23.06;40.09
55656;BME280;41530;52.382;5.270;2023-06-04T10:41:23;102593.75;;;23.06;39.83
55656;BME280;41530;52.382;5.270;2023-06-04T10:43:51;102586.00;;;23.03;39.97
55656;BME280;41530;52.382;5.270;2023-06-04T10:46:19;102589.34;;;23.05;40.25
55656;BME280;41530;52.382;5.270;2023-06-04T10:48:48;102584.16;;;23.03;40.25
55656;BME280;41530;52.382;5.270;2023-06-04T10:51:15;102594.72;;;23.05;40.03
55656;BME280;41530;52.382;5.270;2023-06-04T10:53:42;102582.00;;;23.07;40.41
55656;BME280;41530;52.382;5.270;2023-06-04T10:56:09;102578.34;;;23.08;40.48
55656;BME280;41530;52.382;5.270;2023-06-04T10:58:36;102585.25;;;23.10;40.28
55656;BME280;41530;52.382;5.270;2023-06-04T11:01:03;102582.56;;;23.10;40.35
55656;BME280;41530;52.382;5.270;2023-06-04T11:03:36;102582.44;;;23.12;40.30
55656;BME280;41530;52.382;5.270;2023-06-04T11:06:15;102581.03;;;23.08;40.13
55656;BME280;41530;52.382;5.270;2023-06-04T11:08:43;102581.44;;;23.13;40.47
55656;BME280;41530;52.382;5.270;2023-06-04T11:11:16;102586.34;;;23.18;40.75
55656;BME280;41530;52.382;5.270;2023-06-04T11:13:43;102579.47;;;23.15;40.06
55656;BME280;41530;52.382;5.270;2023-06-04T11:16:17;102576.78;;;23.15;40.31
55656;BME280;41530;52.382;5.270;2023-06-04T11:18:54;102575.78;;;23.16;40.95
55656;BME280;41530;52.382;5.270;2023-06-04T11:21:22;102582.38;;;23.22;40.51
55656;BME280;41530;52.382;5.270;2023-06-04T11:23:57;102584.06;;;23.23;40.33
55656;BME280;41530;52.382;5.270;2023-06-04T11:26:34;102572.78;;;23.19;39.53
55656;BME280;41530;52.382;5.270;2023-06-04T11:29:07;102575.78;;;23.16;39.59
55656;BME280;41530;52.382;5.270;2023-06-04T11:31:47;102577.75;;;23.14;39.22
55656;BME280;41530;52.382;5.270;2023-06-04T11:34:23;102572.41;;;23.14;39.65
55656;BME280;41530;52.382;5.270;2023-06-04T11:36:51;102573.09;;;23.16;40.37
55656;BME280;41530;52.382;5.270;2023-06-04T11:39:20;102578.16;;;23.19;40.97
55656;BME280;41530;52.382;5.270;2023-06-04T11:41:48;102571.66;;;23.22;40.68
55656;BME280;41530;52.382;5.270;2023-06-04T11:44:19;102575.88;;;23.24;41.13
55656;BME280;41530;52.382;5.270;2023-06-04T11:46:45;102570.22;;;23.27;40.92
55656;BME280;41530;52.382;5.270;2023-06-04T11:49:15;102562.88;;;23.29;40.85
55656;BME280;41530;52.382;5.270;2023-06-04T11:51:51;102569.91;;;23.30;40.81
55656;BME280;41530;52.382;5.270;2023-06-04T11:54:21;102568.91;;;23.31;40.58
55656;BME280;41530;52.382;5.270;2023-06-04T11:56:49;102558.88;;;23.33;41.10
55656;BME280;41530;52.382;5.270;2023-06-04T11:59:17;102562.53;;;23.32;40.05
55656;BME280;41530;52.382;5.270;2023-06-04T12:01:46;102563.25;;;23.34;41.33
55656;BME280;41530;52.382;5.270;2023-06-04T12:04:13;102557.88;;;23.34;40.47
55656;BME280;41530;52.382;5.270;2023-06-04T12:06:54;102556.88;;;23.35;41.00
55656;BME280;41530;52.382;5.270;2023-06-04T12:09:22;102554.19;;;23.35;40.52
55656;BME280;41530;52.382;5.270;2023-06-04T12:11:49;102550.38;;;23.38;41.05
55656;BME280;41530;52.382;5.270;2023-06-04T12:14:17;102547.53;;;23.39;40.47
55656;BME280;41530;52.382;5.270;2023-06-04T12:17:01;102553.91;;;23.38;39.81
55656;BME280;41530;52.382;5.270;2023-06-04T12:19:28;102540.75;;;23.35;40.05
55656;BME280;41530;52.382;5.270;2023-06-04T12:22:06;102550.53;;;23.36;39.57
55656;BME280;41530;52.382;5.270;2023-06-04T12:24:35;102558.44;;;23.38;40.37
55656;BME280;41530;52.382;5.270;2023-06-04T12:27:12;102550.53;;;23.36;40.51
55656;BME280;41530;52.382;5.270;2023-06-04T12:29:39;102550.22;;;23.39;40.86
55656;BME280;41530;52.382;5.270;2023-06-04T12:32:09;102551.78;;;23.42;40.70
55656;BME280;41530;52.382;5.270;2023-06-04T12:34:40;102555.13;;;23.44;41.02
55656;BME280;41530;52.382;5.270;2023-06-04T12:37:07;102554.00;;;23.46;40.92
55656;BME280;41530;52.382;5.270;2023-06-04T12:39:35;102553.00;;;23.48;40.72
55656;BME280;41530;52.382;5.270;2023-06-04T12:42:05;102556.38;;;23.50;40.96
55656;BME280;41530;52.382;5.270;2023-06-04T12:44:32;102551.00;;;23.50;40.43
55656;BME280;41530;52.382;5.270;2023-06-04T12:47:01;102562.19;;;23.55;40.54
55656;BME280;41530;52.382;5.270;2023-06-04T12:49:30;102557.53;;;23.57;40.57
55656;BME280;41530;52.382;5.270;2023-06-04T12:51:57;102555.66;;;23.57;40.45
55656;BME280;41530;52.382;5.270;2023-06-04T12:54:23;102560.88;;;23.59;39.79
55656;BME280;41530;52.382;5.270;2023-06-04T12:56:50;102548.16;;;23.61;40.61
55656;BME280;41530;52.382;5.270;2023-06-04T12:59:17;102554.38;;;23.61;40.32
55656;BME280;41530;52.382;5.270;2023-06-04T13:01:44;102546.44;;;23.60;40.60
55656;BME280;41530;52.382;5.270;2023-06-04T13:04:11;102556.22;;;23.61;39.90